Time,TemperatureF,DewpointF,PressureIn,WindDirection,WindDirectionDegrees,WindSpeedMPH,WindSpeedGustMPH,Humidity,HourlyPrecipIn,Conditions,Clouds,dailyrainin,SolarRadiationWatts/m^2,SoftwareType,DateUTC
2013-04-03 00:12:00,26.0,12.0,-100.00,West,275,6.0,8.0,56,0.00,,,-99.99,0.000000,,2013-04-03 05:12:00,
2013-04-03 00:22:00,26.0,12.0,-100.00,West,275,6.0,8.0,56,0.00,,,-99.99,0.000000,,2013-04-03 05:22:00,
2013-04-03 00:32:00,26.0,12.0,-100.00,West,275,6.0,8.0,56,0.00,,,-99.99,0.000000,,2013-04-03 05:32:00,
2013-04-03 00:42:00,26.0,12.0,-100.00,West,275,6.0,8.0,56,0.00,,,-99.99,0.000000,,2013-04-03 05:42:00,
2013-04-03 01:12:00,25.0,12.0,-100.00,West,273,4.0,7.0,57,0.00,,,0.00,0.000000,,2013-04-03 06:12:00,
2013-04-03 01:22:00,25.0,12.0,-100.00,West,273,4.0,7.0,57,0.00,,,0.00,0.000000,,2013-04-03 06:22:00,
2013-04-03 01:32:00,25.0,12.0,-100.00,West,273,4.0,7.0,57,0.00,,,0.00,0.000000,,2013-04-03 06:32:00,
2013-04-03 01:42:00,25.0,12.0,-100.00,West,273,4.0,7.0,57,0.00,,,0.00,0.000000,,2013-04-03 06:42:00,
2013-04-03 02:12:00,23.0,11.0,-100.00,WSW,252,4.0,7.0,59,0.00,,,0.00,0.000000,,2013-04-03 07:12:00,
2013-04-03 02:23:00,23.0,11.0,-100.00,WSW,252,4.0,7.0,59,0.00,,,0.00,0.000000,,2013-04-03 07:23:00,
2013-04-03 02:32:00,23.0,11.0,-100.00,WSW,252,4.0,7.0,59,0.00,,,0.00,0.000000,,2013-04-03 07:32:00,
2013-04-03 02:42:00,23.0,11.0,-100.00,WSW,252,4.0,7.0,59,0.00,,,0.00,0.000000,,2013-04-03 07:42:00,
2013-04-03 03:12:00,21.0,12.0,-100.00,NW,310,4.0,6.0,69,0.00,,,0.00,0.000000,,2013-04-03 08:12:00,
2013-04-03 03:22:00,21.0,12.0,-100.00,NW,310,4.0,6.0,69,0.00,,,0.00,0.000000,,2013-04-03 08:22:00,
2013-04-03 03:32:00,21.0,12.0,-100.00,NW,310,4.0,6.0,69,0.00,,,0.00,0.000000,,2013-04-03 08:32:00,
2013-04-03 03:42:00,21.0,12.0,-100.00,NW,310,4.0,6.0,69,0.00,,,0.00,0.000000,,2013-04-03 08:42:00,
2013-04-03 04:12:00,19.0,11.0,-100.00,West,279,2.0,5.0,72,0.00,,,0.00,0.000000,,2013-04-03 09:12:00,
2013-04-03 04:22:00,19.0,11.0,-100.00,West,279,2.0,5.0,72,0.00,,,0.00,0.000000,,2013-04-03 09:22:00,
2013-04-03 04:33:00,19.0,11.0,-100.00,West,279,2.0,5.0,72,0.00,,,0.00,0.000000,,2013-04-03 09:33:00,
2013-04-03 04:43:00,19.0,11.0,-100.00,West,279,2.0,5.0,72,0.00,,,0.00,0.000000,,2013-04-03 09:43:00,
2013-04-03 05:12:00,17.0,11.0,-100.00,SSW,210,2.0,3.0,76,0.00,,,0.00,0.000000,,2013-04-03 10:12:00,
2013-04-03 05:22:00,17.0,11.0,-100.00,SSW,210,2.0,3.0,76,0.00,,,0.00,0.000000,,2013-04-03 10:22:00,
2013-04-03 05:33:00,17.0,11.0,-100.00,SSW,210,2.0,3.0,76,0.00,,,0.00,0.000000,,2013-04-03 10:33:00,
2013-04-03 05:43:00,17.0,11.0,-100.00,SSW,210,2.0,3.0,76,0.00,,,0.00,0.000000,,2013-04-03 10:43:00,
2013-04-03 06:12:00,15.0,11.0,-100.00,NNE,32,0.0,3.0,84,0.00,,,0.00,0.000000,,2013-04-03 11:12:00,
2013-04-03 06:22:00,15.0,11.0,-100.00,NNE,32,0.0,3.0,84,0.00,,,0.00,0.000000,,2013-04-03 11:22:00,
2013-04-03 06:32:00,15.0,11.0,-100.00,NNE,32,0.0,3.0,84,0.00,,,0.00,0.000000,,2013-04-03 11:32:00,
2013-04-03 06:42:00,15.0,11.0,-100.00,NNE,32,0.0,3.0,84,0.00,,,0.00,0.000000,,2013-04-03 11:42:00,
2013-04-03 07:13:00,14.0,10.0,-100.00,SE,124,0.0,0.0,85,0.00,,,0.00,1.000000,,2013-04-03 12:13:00,
2013-04-03 07:22:00,14.0,10.0,-100.00,SE,124,0.0,0.0,85,0.00,,,0.00,1.000000,,2013-04-03 12:22:00,
2013-04-03 07:33:00,14.0,10.0,-100.00,SE,124,0.0,0.0,85,0.00,,,0.00,1.000000,,2013-04-03 12:33:00,
2013-04-03 07:42:00,14.0,10.0,-100.00,SE,124,0.0,0.0,85,0.00,,,0.00,1.000000,,2013-04-03 12:42:00,
2013-04-03 08:12:00,18.0,13.0,-100.00,West,259,0.0,2.0,82,0.00,,,0.00,46.000000,,2013-04-03 13:12:00,
2013-04-03 08:22:00,18.0,13.0,-100.00,West,259,0.0,2.0,82,0.00,,,0.00,46.000000,,2013-04-03 13:22:00,
2013-04-03 08:32:00,18.0,13.0,-100.00,West,259,0.0,2.0,82,0.00,,,0.00,46.000000,,2013-04-03 13:32:00,
2013-04-03 08:42:00,18.0,13.0,-100.00,West,259,0.0,2.0,82,0.00,,,0.00,46.000000,,2013-04-03 13:42:00,
2013-04-03 09:12:00,28.0,14.0,-100.00,SW,226,2.0,6.0,55,0.00,,,0.00,222.000000,,2013-04-03 14:12:00,
2013-04-03 09:22:00,28.0,14.0,-100.00,SW,226,2.0,6.0,55,0.00,,,0.00,222.000000,,2013-04-03 14:22:00,
2013-04-03 09:32:00,28.0,14.0,-100.00,SW,226,2.0,6.0,55,0.00,,,0.00,222.000000,,2013-04-03 14:32:00,
2013-04-03 09:42:00,28.0,14.0,-100.00,SW,226,2.0,6.0,55,0.00,,,0.00,222.000000,,2013-04-03 14:42:00,
2013-04-03 10:12:00,36.0,12.0,-100.00,SSE,166,2.0,7.0,36,0.00,,,0.00,485.000000,,2013-04-03 15:12:00,
2013-04-03 10:33:00,36.0,12.0,-100.00,SSE,166,2.0,7.0,36,0.00,,,0.00,485.000000,,2013-04-03 15:33:00,
2013-04-03 10:42:00,36.0,12.0,-100.00,SSE,166,2.0,7.0,36,0.00,,,0.00,485.000000,,2013-04-03 15:42:00,
2013-04-03 11:13:00,40.0,8.0,-100.00,East,87,3.0,7.0,26,0.00,,,0.00,653.000000,,2013-04-03 16:13:00,
2013-04-03 11:24:00,40.0,8.0,-100.00,East,87,3.0,7.0,26,0.00,,,0.00,653.000000,,2013-04-03 16:24:00,
2013-04-03 11:32:00,40.0,8.0,-100.00,East,87,3.0,7.0,26,0.00,,,0.00,653.000000,,2013-04-03 16:32:00,
2013-04-03 11:43:00,40.0,8.0,-100.00,East,87,3.0,7.0,26,0.00,,,0.00,653.000000,,2013-04-03 16:43:00,
2013-04-03 12:13:00,40.0,7.0,-100.00,East,96,6.0,9.0,25,0.00,,,0.00,767.000000,,2013-04-03 17:13:00,
2013-04-03 12:23:00,40.0,7.0,-100.00,East,96,6.0,9.0,25,0.00,,,0.00,767.000000,,2013-04-03 17:23:00,
2013-04-03 12:33:00,40.0,7.0,-100.00,East,96,6.0,9.0,25,0.00,,,0.00,767.000000,,2013-04-03 17:33:00,
2013-04-03 12:45:00,40.0,7.0,-100.00,East,96,6.0,9.0,25,0.00,,,0.00,767.000000,,2013-04-03 17:45:00,
2013-04-03 13:13:00,42.0,6.0,-100.00,NE,40,4.0,10.0,22,0.00,,,0.00,851.000000,,2013-04-03 18:13:00,
2013-04-03 13:22:00,42.0,6.0,-100.00,NE,40,4.0,10.0,22,0.00,,,0.00,851.000000,,2013-04-03 18:22:00,
2013-04-03 13:33:00,42.0,6.0,-100.00,NE,40,4.0,10.0,22,0.00,,,0.00,851.000000,,2013-04-03 18:33:00,
2013-04-03 13:42:00,42.0,6.0,-100.00,NE,40,4.0,10.0,22,0.00,,,0.00,851.000000,,2013-04-03 18:42:00,
2013-04-03 14:12:00,44.0,6.0,-100.00,East,90,5.0,8.0,20,0.00,,,0.00,863.000000,,2013-04-03 19:12:00,
2013-04-03 14:22:00,44.0,6.0,-100.00,East,90,5.0,8.0,20,0.00,,,0.00,863.000000,,2013-04-03 19:22:00,
2013-04-03 14:32:00,44.0,6.0,-100.00,East,90,5.0,8.0,20,0.00,,,0.00,863.000000,,2013-04-03 19:32:00,
2013-04-03 14:42:00,44.0,6.0,-100.00,East,90,5.0,8.0,20,0.00,,,0.00,863.000000,,2013-04-03 19:42:00,
2013-04-03 15:12:00,45.0,2.0,-100.00,SSE,150,5.0,14.0,16,0.00,,,0.00,818.000000,,2013-04-03 20:12:00,
2013-04-03 15:23:00,45.0,2.0,-100.00,SSE,150,5.0,14.0,16,0.00,,,0.00,818.000000,,2013-04-03 20:23:00,
2013-04-03 15:32:00,45.0,2.0,-100.00,SSE,150,5.0,14.0,16,0.00,,,0.00,818.000000,,2013-04-03 20:32:00,
2013-04-03 15:42:00,45.0,2.0,-100.00,SSE,150,5.0,14.0,16,0.00,,,0.00,818.000000,,2013-04-03 20:42:00,
2013-04-03 16:12:00,46.0,4.0,-100.00,SSW,193,9.0,16.0,17,0.00,,,0.00,715.000000,,2013-04-03 21:12:00,
2013-04-03 16:22:00,46.0,4.0,-100.00,SSW,193,9.0,16.0,17,0.00,,,0.00,715.000000,,2013-04-03 21:22:00,
2013-04-03 16:33:00,46.0,4.0,-100.00,SSW,193,9.0,16.0,17,0.00,,,0.00,715.000000,,2013-04-03 21:33:00,
2013-04-03 16:42:00,46.0,4.0,-100.00,SSW,193,9.0,16.0,17,0.00,,,0.00,715.000000,,2013-04-03 21:42:00,
2013-04-03 17:12:00,46.0,7.0,-100.00,South,191,9.0,18.0,20,0.00,,,0.00,568.000000,,2013-04-03 22:12:00,
2013-04-03 17:22:00,46.0,7.0,-100.00,South,191,9.0,18.0,20,0.00,,,0.00,568.000000,,2013-04-03 22:22:00,
2013-04-03 17:32:00,46.0,7.0,-100.00,South,191,9.0,18.0,20,0.00,,,0.00,568.000000,,2013-04-03 22:32:00,
2013-04-03 17:42:00,46.0,7.0,-100.00,South,191,9.0,18.0,20,0.00,,,0.00,568.000000,,2013-04-03 22:42:00,
2013-04-03 18:12:00,46.0,10.0,-100.00,South,174,7.0,18.0,23,0.00,,,0.00,385.000000,,2013-04-03 23:12:00,
2013-04-03 18:22:00,46.0,10.0,-100.00,South,174,7.0,18.0,23,0.00,,,0.00,385.000000,,2013-04-03 23:22:00,
2013-04-03 18:32:00,46.0,10.0,-100.00,South,174,7.0,18.0,23,0.00,,,0.00,385.000000,,2013-04-03 23:32:00,
2013-04-03 18:42:00,46.0,10.0,-100.00,South,174,7.0,18.0,23,0.00,,,0.00,385.000000,,2013-04-03 23:42:00,
2013-04-03 19:12:00,45.0,10.0,-100.00,SSW,201,10.0,16.0,24,0.00,,,0.00,188.000000,,2013-04-04 00:12:00,
2013-04-03 19:22:00,45.0,10.0,-100.00,SSW,201,10.0,16.0,24,0.00,,,0.00,188.000000,,2013-04-04 00:22:00,
2013-04-03 19:32:00,45.0,10.0,-100.00,SSW,201,10.0,16.0,24,0.00,,,0.00,188.000000,,2013-04-04 00:32:00,
2013-04-03 19:43:00,45.0,10.0,-100.00,SSW,201,10.0,16.0,24,0.00,,,0.00,188.000000,,2013-04-04 00:43:00,
2013-04-03 20:12:00,40.0,10.0,-100.00,South,187,5.0,15.0,29,0.00,,,-99.99,28.000000,,2013-04-04 01:12:00,
2013-04-03 20:22:00,40.0,10.0,-100.00,South,187,5.0,15.0,29,0.00,,,-99.99,28.000000,,2013-04-04 01:22:00,
2013-04-03 20:32:00,40.0,10.0,-100.00,South,187,5.0,15.0,29,0.00,,,-99.99,28.000000,,2013-04-04 01:32:00,
2013-04-03 20:43:00,40.0,10.0,-100.00,South,187,5.0,15.0,29,0.00,,,-99.99,28.000000,,2013-04-04 01:43:00,
2013-04-03 21:12:00,38.0,13.0,-100.00,South,189,6.0,9.0,36,0.00,,,0.00,0.000000,,2013-04-04 02:12:00,
2013-04-03 21:22:00,38.0,13.0,-100.00,South,189,6.0,9.0,36,0.00,,,0.00,0.000000,,2013-04-04 02:22:00,
2013-04-03 21:32:00,38.0,13.0,-100.00,South,189,6.0,9.0,36,0.00,,,0.00,0.000000,,2013-04-04 02:32:00,
2013-04-03 21:42:00,38.0,13.0,-100.00,South,189,6.0,9.0,36,0.00,,,0.00,0.000000,,2013-04-04 02:42:00,
2013-04-03 22:12:00,36.0,15.0,-100.00,South,173,5.0,10.0,41,0.00,,,0.00,0.000000,,2013-04-04 03:12:00,
2013-04-03 22:22:00,36.0,15.0,-100.00,South,173,5.0,10.0,41,0.00,,,0.00,0.000000,,2013-04-04 03:22:00,
2013-04-03 22:33:00,36.0,15.0,-100.00,South,173,5.0,10.0,41,0.00,,,0.00,0.000000,,2013-04-04 03:33:00,
2013-04-03 22:43:00,36.0,15.0,-100.00,South,173,5.0,10.0,41,0.00,,,0.00,0.000000,,2013-04-04 03:43:00,
2013-04-03 23:12:00,33.0,14.0,-100.00,South,187,4.0,7.0,46,0.00,,,0.00,0.000000,,2013-04-04 04:12:00,
2013-04-03 23:23:00,33.0,14.0,-100.00,South,187,4.0,7.0,46,0.00,,,0.00,0.000000,,2013-04-04 04:23:00,
2013-04-03 23:33:00,33.0,14.0,-100.00,South,187,4.0,7.0,46,0.00,,,0.00,0.000000,,2013-04-04 04:33:00,
2013-04-03 23:43:00,33.0,14.0,-100.00,South,187,4.0,7.0,46,0.00,,,0.00,0.000000,,2013-04-04 04:43:00,